Time;durP1;ratioP1;P1;durP2;ratioP2;P2;SDS_P1;SDS_P2;PMS_P1;PMS_P2;Temp;Humidity;BMP_temperature;BMP_pressure;BME280_temperature;BME280_humidity;BME280_pressure;Samples;Min_cycle;Max_cycle;Signal;HPM_P1;HPM_P2
2022/06/06 00:01:22;;;;;;;7.25;5.65;;;19.60;99.90;;;;;;5014293;28;20185;-68
2022/06/06 00:03:49;;;;;;;6.82;5.40;;;19.60;99.90;;;;;;5014142;28;20221;-69
2022/06/06 00:06:20;;;;;;;7.97;5.13;;;19.60;99.90;;;;;;5014255;28;20203;-69
2022/06/06 00:08:49;;;;;;;6.53;4.60;;;19.60;99.90;;;;;;5014992;28;20179;-68
2022/06/06 00:11:23;;;;;;;5.15;4.20;;;19.60;99.90;;;;;;5011758;28;20175;-69
2022/06/06 00:13:51;;;;;;;5.18;4.10;;;19.60;99.90;;;;;;5015587;28;20253;-69
2022/06/06 00:16:16;;;;;;;5.45;3.95;;;19.60;99.90;;;;;;5017712;28;20229;-68
2022/06/06 00:18:43;;;;;;;3.95;3.58;;;19.50;99.90;;;;;;5024346;28;20181;-68
2022/06/06 00:21:12;;;;;;;4.25;3.85;;;19.50;99.90;;;;;;5028865;28;20203;-68
2022/06/06 00:23:38;;;;;;;4.18;3.78;;;19.50;99.90;;;;;;5008956;28;20187;-69
2022/06/06 00:26:09;;;;;;;4.55;3.30;;;19.50;99.90;;;;;;5015963;28;20187;-68
2022/06/06 00:28:43;;;;;;;3.65;3.28;;;19.50;99.90;;;;;;5011660;28;20178;-69
2022/06/06 00:36:45;;;;;;;6.57;3.35;;;19.40;99.90;;;;;;5015319;28;20246;-68
2022/06/06 00:39:14;;;;;;;4.38;3.38;;;19.40;99.90;;;;;;5014663;28;20225;-68
2022/06/06 00:41:49;;;;;;;3.60;3.15;;;19.40;99.90;;;;;;5017136;28;20392;-69
2022/06/06 00:44:19;;;;;;;4.22;3.45;;;19.40;99.90;;;;;;5017318;28;20166;-68
2022/06/06 00:46:56;;;;;;;4.32;3.10;;;19.30;99.90;;;;;;5011781;28;20199;-68
2022/06/06 00:49:36;;;;;;;3.42;3.13;;;19.30;99.90;;;;;;5013886;28;20284;-68
2022/06/06 00:52:08;;;;;;;3.65;3.17;;;19.30;99.90;;;;;;5014596;28;20191;-69
2022/06/06 00:54:34;;;;;;;4.82;3.40;;;19.30;99.90;;;;;;5015548;28;20210;-69
2022/06/06 00:57:04;;;;;;;3.80;3.20;;;19.30;99.90;;;;;;5015668;28;20171;-69
2022/06/06 00:59:34;;;;;;;4.63;3.03;;;19.30;99.90;;;;;;5015399;28;20170;-69
2022/06/06 01:02:00;;;;;;;5.03;3.97;;;19.30;99.90;;;;;;5027956;28;20274;-68
2022/06/06 01:04:28;;;;;;;4.32;3.80;;;19.30;99.90;;;;;;5004871;28;20183;-69
2022/06/06 01:06:57;;;;;;;5.05;3.80;;;19.20;99.90;;;;;;5016379;28;20190;-68
2022/06/06 01:09:24;;;;;;;5.18;3.90;;;19.20;99.90;;;;;;5017101;28;20253;-69
2022/06/06 01:12:05;;;;;;;4.93;4.30;;;19.10;99.90;;;;;;5014877;28;20174;-69
2022/06/06 01:14:47;;;;;;;6.32;4.85;;;19.10;99.90;;;;;;5013692;28;20198;-69
2022/06/06 01:17:25;;;;;;;6.50;4.68;;;19.10;99.90;;;;;;5027179;28;20353;-68
2022/06/06 01:20:15;;;;;;;5.95;4.55;;;19.00;99.90;;;;;;5016179;28;20232;-69
2022/06/06 01:22:50;;;;;;;7.28;4.53;;;19.00;99.90;;;;;;5023077;28;20183;-69
2022/06/06 01:25:27;;;;;;;7.57;5.43;;;18.90;99.90;;;;;;5031417;28;20208;-69
2022/06/06 01:28:23;;;;;;;5.28;4.18;;;18.90;99.90;;;;;;5016054;28;20194;-69
2022/06/06 01:30:58;;;;;;;6.45;4.60;;;18.80;99.90;;;;;;5027744;28;20184;-69
2022/06/06 01:33:28;;;;;;;7.70;5.05;;;18.80;99.90;;;;;;5022682;28;20204;-68
2022/06/06 01:36:01;;;;;;;8.75;4.90;;;18.80;99.90;;;;;;5004891;28;20211;-68
2022/06/06 01:38:27;;;;;;;5.80;4.70;;;18.80;99.90;;;;;;5015992;28;20174;-69
2022/06/06 01:41:08;;;;;;;6.32;5.10;;;18.70;99.90;;;;;;5015945;28;20178;-69
2022/06/06 01:43:41;;;;;;;6.05;5.03;;;18.70;99.90;;;;;;5018818;28;20274;-70
2022/06/06 01:46:17;;;;;;;5.82;4.22;;;18.70;99.90;;;;;;5016172;28;20179;-68
2022/06/06 01:48:44;;;;;;;5.80;4.43;;;18.70;99.90;;;;;;5014409;28;20237;-69
2022/06/06 01:51:19;;;;;;;6.10;3.97;;;18.70;99.90;;;;;;5016204;28;20186;-67
2022/06/06 01:53:47;;;;;;;4.85;3.90;;;18.70;99.90;;;;;;4996957;28;20288;-69
2022/06/06 01:56:33;;;;;;;5.57;4.45;;;18.70;99.90;;;;;;5011216;28;20202;-69
2022/06/06 01:59:01;;;;;;;5.05;4.30;;;18.60;99.90;;;;;;5012768;28;20166;-68
2022/06/06 02:01:30;;;;;;;6.10;4.47;;;18.60;99.90;;;;;;5015395;28;20194;-69
2022/06/06 02:04:00;;;;;;;6.65;4.85;;;18.60;99.90;;;;;;5013242;28;20202;-68
2022/06/06 02:06:26;;;;;;;5.95;5.22;;;18.60;99.90;;;;;;5009911;28;20213;-69
2022/06/06 02:08:52;;;;;;;5.90;4.05;;;18.50;99.90;;;;;;5014067;28;20226;-69
2022/06/06 02:11:20;;;;;;;6.15;4.30;;;18.50;99.90;;;;;;5031331;28;20174;-69
2022/06/06 02:13:46;;;;;;;5.97;4.32;;;18.50;99.90;;;;;;5013553;28;20202;-69
2022/06/06 02:16:12;;;;;;;9.82;4.65;;;18.40;99.90;;;;;;5015393;28;20232;-69
2022/06/06 02:18:38;;;;;;;5.68;4.30;;;18.40;99.90;;;;;;5016046;28;20166;-68
2022/06/06 02:21:07;;;;;;;5.03;3.78;;;18.40;99.90;;;;;;5011525;28;20201;-68
2022/06/06 02:23:33;;;;;;;4.88;4.05;;;18.40;99.90;;;;;;5006494;28;20224;-69
2022/06/06 02:25:59;;;;;;;5.13;4.07;;;18.30;99.90;;;;;;5015976;28;20174;-68
2022/06/06 02:28:25;;;;;;;6.57;4.30;;;18.30;99.90;;;;;;5012428;28;20179;-68
2022/06/06 02:30:51;;;;;;;5.65;3.72;;;18.30;99.90;;;;;;5011124;28;20182;-69
2022/06/06 02:33:17;;;;;;;4.43;3.92;;;18.30;99.90;;;;;;5013867;28;20205;-68
2022/06/06 02:35:45;;;;;;;6.47;4.10;;;18.30;99.90;;;;;;5014988;28;20311;-68
2022/06/06 02:38:13;;;;;;;7.22;3.83;;;18.30;99.90;;;;;;5013901;28;20175;-68
2022/06/06 02:40:41;;;;;;;5.30;3.80;;;18.30;99.90;;;;;;5014552;28;20190;-68
2022/06/06 02:43:06;;;;;;;5.78;3.80;;;18.30;99.90;;;;;;5012005;28;20242;-68
2022/06/06 02:45:35;;;;;;;5.43;3.90;;;18.30;99.90;;;;;;5012005;28;20203;-69
2022/06/06 02:48:03;;;;;;;4.93;4.05;;;18.30;99.90;;;;;;5013166;28;20214;-67
2022/06/06 02:50:33;;;;;;;4.47;3.60;;;18.30;99.90;;;;;;4999880;28;20195;-68
2022/06/06 02:52:59;;;;;;;5.05;3.60;;;18.30;99.90;;;;;;5015116;28;20198;-68
2022/06/06 02:55:25;;;;;;;5.88;3.67;;;18.30;99.90;;;;;;5013252;28;20175;-68
2022/06/06 02:57:54;;;;;;;4.70;4.00;;;18.20;99.90;;;;;;5014601;28;20186;-69
2022/06/06 03:00:26;;;;;;;4.32;3.63;;;18.20;99.90;;;;;;5015260;28;20175;-69
2022/06/06 03:02:55;;;;;;;4.00;3.60;;;18.20;99.90;;;;;;5014533;28;20183;-68
2022/06/06 03:05:21;;;;;;;4.65;3.40;;;18.10;99.90;;;;;;5015539;28;20286;-68
2022/06/06 03:08:13;;;;;;;5.97;4.07;;;18.10;99.90;;;;;;5014829;28;20218;-68
2022/06/06 03:11:06;;;;;;;4.40;3.42;;;18.10;99.90;;;;;;5014613;28;20199;-68
2022/06/06 03:13:34;;;;;;;4.28;3.38;;;18.00;99.90;;;;;;5005020;28;20203;-68
2022/06/06 03:22:53;;;;;;;4.03;3.28;;;18.00;99.90;;;;;;5072424;28;20266;-78
2022/06/06 03:25:42;;;;;;;4.53;3.63;;;17.90;99.90;;;;;;5061964;28;20486;-88
2022/06/06 03:28:26;;;;;;;4.05;3.15;;;17.90;99.90;;;;;;5052931;28;20185;-88
2022/06/06 03:31:31;;;;;;;4.40;3.25;;;17.90;99.90;;;;;;5062561;28;20181;-86
2022/06/06 03:33:57;;;;;;;3.20;2.78;;;17.90;99.90;;;;;;5067195;28;20259;-90
2022/06/06 03:36:28;;;;;;;3.40;2.53;;;17.90;99.90;;;;;;5064223;28;20264;-87
2022/06/06 03:38:57;;;;;;;3.30;2.85;;;17.90;99.90;;;;;;5069565;28;20223;-86
2022/06/06 03:41:32;;;;;;;3.03;2.70;;;17.90;99.90;;;;;;5063825;28;20280;-87
2022/06/06 03:44:13;;;;;;;3.85;3.08;;;17.80;99.90;;;;;;5056137;28;20173;-88
2022/06/06 03:46:56;;;;;;;3.00;2.70;;;17.80;99.90;;;;;;5069397;28;20208;-88
2022/06/06 03:49:50;;;;;;;3.45;2.60;;;17.80;99.90;;;;;;5072875;28;20192;-68
2022/06/06 03:52:42;;;;;;;3.42;2.35;;;17.80;99.90;;;;;;5092177;28;20309;-68
2022/06/06 03:55:27;;;;;;;3.28;2.72;;;17.80;99.90;;;;;;5085634;28;20257;-89
2022/06/06 03:57:56;;;;;;;4.03;2.65;;;17.80;99.90;;;;;;5068096;28;20204;-89
2022/06/06 04:00:22;;;;;;;3.33;2.50;;;17.80;99.90;;;;;;5069130;28;20208;-86
2022/06/06 04:02:51;;;;;;;3.92;2.60;;;17.80;99.90;;;;;;5074325;28;20277;-89
2022/06/06 04:05:20;;;;;;;3.13;2.30;;;17.80;99.90;;;;;;5067225;28;20196;-86
2022/06/06 04:07:48;;;;;;;3.05;2.30;;;17.80;99.90;;;;;;5075665;28;20176;-87
2022/06/06 04:10:15;;;;;;;4.30;2.58;;;17.80;99.90;;;;;;5070962;28;20188;-89
2022/06/06 04:13:08;;;;;;;4.32;2.30;;;17.80;99.90;;;;;;5067814;28;20187;-85
2022/06/06 04:15:45;;;;;;;3.50;2.47;;;17.90;99.90;;;;;;5071067;28;20169;-84
2022/06/06 04:18:11;;;;;;;3.28;2.40;;;17.90;99.90;;;;;;5082231;28;20204;-88
2022/06/06 04:20:42;;;;;;;2.92;2.22;;;17.90;99.90;;;;;;5066852;28;20246;-88
2022/06/06 04:23:22;;;;;;;3.13;2.33;;;18.00;99.90;;;;;;5061413;28;20232;-89
2022/06/06 04:26:16;;;;;;;2.45;2.25;;;18.00;99.90;;;;;;5070623;28;20252;-89
2022/06/06 04:29:19;;;;;;;3.22;2.28;;;18.10;99.90;;;;;;5064810;28;20216;-89
2022/06/06 04:31:56;;;;;;;2.92;2.47;;;18.20;99.90;;;;;;5053501;28;20182;-89
2022/06/06 04:34:31;;;;;;;2.55;2.20;;;18.20;99.90;;;;;;5049286;28;20177;-86
2022/06/06 04:37:40;;;;;;;2.72;2.20;;;18.30;99.90;;;;;;5052868;28;20188;-87
2022/06/06 04:40:25;;;;;;;2.65;2.20;;;18.40;99.90;;;;;;5052742;28;20186;-83
2022/06/06 04:42:57;;;;;;;3.45;2.50;;;18.40;99.90;;;;;;5051914;28;20263;-89
2022/06/06 04:45:37;;;;;;;2.30;2.10;;;18.40;99.90;;;;;;5054451;28;20177;-87
2022/06/06 04:48:07;;;;;;;3.30;2.10;;;18.40;99.90;;;;;;5066784;28;20245;-88
2022/06/06 04:50:34;;;;;;;2.80;2.25;;;18.40;99.90;;;;;;5055982;28;20315;-85
2022/06/06 04:53:06;;;;;;;2.30;2.08;;;18.40;99.90;;;;;;5050362;28;20244;-89
2022/06/06 04:55:33;;;;;;;3.20;2.40;;;18.40;99.90;;;;;;5047827;28;20178;-86
2022/06/06 04:58:03;;;;;;;2.28;1.98;;;18.40;99.90;;;;;;5056004;28;20208;-89
2022/06/06 05:00:33;;;;;;;4.20;2.30;;;18.40;99.90;;;;;;5043814;28;20202;-89
2022/06/06 05:02:58;;;;;;;2.17;1.98;;;18.40;99.90;;;;;;5054943;28;20174;-90
2022/06/06 05:05:28;;;;;;;2.80;2.10;;;18.40;99.90;;;;;;5090491;28;20197;-87
2022/06/06 05:08:03;;;;;;;2.50;2.00;;;18.40;99.90;;;;;;5053953;28;20181;-84
2022/06/06 05:10:55;;;;;;;2.25;1.95;;;18.40;99.90;;;;;;5048382;28;20211;-89
2022/06/06 05:13:36;;;;;;;2.40;2.00;;;18.40;99.90;;;;;;5047766;28;20178;-87
2022/06/06 05:16:10;;;;;;;2.55;2.17;;;18.40;99.90;;;;;;5069386;28;20185;-84
2022/06/06 05:19:01;;;;;;;2.58;1.95;;;18.40;99.90;;;;;;5037080;28;20224;-86
2022/06/06 05:21:33;;;;;;;2.13;1.90;;;18.40;99.90;;;;;;5051302;28;20173;-87
2022/06/06 05:24:32;;;;;;;2.40;1.65;;;18.40;99.90;;;;;;5056324;28;20213;-84
2022/06/06 05:27:25;;;;;;;2.15;1.80;;;18.40;99.90;;;;;;5088667;28;20181;-80
2022/06/06 05:30:06;;;;;;;2.83;2.10;;;18.40;99.90;;;;;;5054549;28;20178;-85
2022/06/06 05:32:40;;;;;;;3.63;2.10;;;18.50;99.90;;;;;;5067252;28;20196;-68
2022/06/06 05:35:38;;;;;;;5.00;2.20;;;18.50;99.90;;;;;;5070813;28;20269;-75
2022/06/06 05:38:19;;;;;;;2.08;1.83;;;18.50;99.90;;;;;;5058474;28;20210;-80
2022/06/06 05:40:58;;;;;;;2.55;1.98;;;18.60;99.90;;;;;;5054901;28;20178;-84
2022/06/06 05:43:56;;;;;;;2.20;2.00;;;18.60;99.90;;;;;;5053374;28;20178;-85
2022/06/06 05:46:40;;;;;;;2.03;1.60;;;18.70;99.90;;;;;;5042932;28;20190;-81
2022/06/06 05:49:32;;;;;;;2.00;1.80;;;18.80;99.90;;;;;;5053481;28;20181;-81
2022/06/06 05:51:57;;;;;;;2.60;2.05;;;18.80;99.90;;;;;;5065779;28;20264;-83
2022/06/06 05:54:45;;;;;;;3.08;2.17;;;18.90;99.90;;;;;;5064838;28;20193;-81
2022/06/06 05:57:26;;;;;;;4.18;2.10;;;18.90;99.90;;;;;;5053283;28;20169;-83
2022/06/06 05:59:56;;;;;;;2.38;2.00;;;18.80;99.90;;;;;;5054791;28;20193;-80
2022/06/06 06:02:41;;;;;;;2.55;2.00;;;18.80;99.90;;;;;;5043928;28;20280;-84
2022/06/06 06:05:19;;;;;;;2.30;1.95;;;18.70;99.90;;;;;;5051792;28;20173;-82
2022/06/06 06:08:25;;;;;;;2.60;1.90;;;18.70;99.90;;;;;;5048400;28;20177;-82
2022/06/06 06:10:59;;;;;;;2.53;2.00;;;18.70;99.90;;;;;;5055584;28;20185;-82
2022/06/06 06:13:53;;;;;;;3.80;1.90;;;18.60;99.90;;;;;;5053888;28;20207;-84
2022/06/06 06:16:21;;;;;;;3.53;2.20;;;18.60;99.90;;;;;;5055345;28;20299;-85
2022/06/06 06:18:56;;;;;;;2.00;1.80;;;18.60;99.90;;;;;;5049182;28;20296;-78
2022/06/06 06:21:30;;;;;;;2.88;1.92;;;18.60;99.90;;;;;;5050427;28;20170;-87
2022/06/06 06:24:12;;;;;;;2.55;1.85;;;18.60;99.90;;;;;;5057122;28;20185;-79
2022/06/06 06:26:44;;;;;;;2.67;1.75;;;18.60;99.90;;;;;;5052220;28;20200;-81
2022/06/06 06:29:10;;;;;;;3.63;1.92;;;18.70;99.90;;;;;;5055249;28;20185;-84
2022/06/06 06:32:26;;;;;;;2.00;1.80;;;18.70;99.90;;;;;;5052100;28;20209;-84
2022/06/06 06:35:13;;;;;;;2.10;1.80;;;18.70;99.90;;;;;;5034847;28;20189;-82
2022/06/06 06:38:04;;;;;;;2.00;1.75;;;18.80;99.90;;;;;;5048075;28;20204;-80
2022/06/06 06:40:37;;;;;;;2.17;1.65;;;18.80;99.90;;;;;;5043206;28;20205;-85
2022/06/06 06:43:27;;;;;;;2.28;1.50;;;18.90;99.90;;;;;;5051908;28;20429;-82
2022/06/06 06:46:00;;;;;;;1.90;1.48;;;18.90;99.90;;;;;;5050045;28;20189;-78
2022/06/06 06:48:38;;;;;;;1.50;1.40;;;19.00;99.90;;;;;;5047419;28;20369;-79
2022/06/06 06:51:12;;;;;;;1.85;1.50;;;19.00;99.90;;;;;;5048909;28;20198;-82
2022/06/06 06:54:06;;;;;;;1.90;1.55;;;19.10;99.90;;;;;;5053859;28;20197;-81
2022/06/06 06:57:06;;;;;;;2.20;1.40;;;19.10;99.90;;;;;;5043793;28;20190;-81
2022/06/06 06:59:57;;;;;;;1.30;1.20;;;19.10;99.90;;;;;;5036995;28;20215;-79
2022/06/06 07:09:01;;;;;;;1.35;1.20;;;19.30;99.90;;;;;;5044473;28;20199;-87
2022/06/06 07:11:54;;;;;;;1.33;0.90;;;19.30;99.90;;;;;;5044147;28;20222;-83
2022/06/06 07:14:43;;;;;;;1.02;0.90;;;19.30;99.90;;;;;;5043464;28;20177;-81
2022/06/06 07:17:12;;;;;;;2.65;0.90;;;19.40;99.90;;;;;;5054896;28;20212;-75
2022/06/06 07:19:46;;;;;;;1.40;1.10;;;19.40;99.90;;;;;;5062833;28;20215;-71
2022/06/06 07:22:15;;;;;;;1.38;1.10;;;19.50;99.90;;;;;;5069359;28;20170;-79
2022/06/06 07:24:42;;;;;;;1.65;1.00;;;19.60;99.90;;;;;;5054993;28;20264;-82
2022/06/06 07:27:10;;;;;;;1.20;0.82;;;19.60;99.90;;;;;;5054707;28;20177;-85
2022/06/06 07:29:36;;;;;;;1.05;0.95;;;19.70;99.90;;;;;;5054138;28;20201;-85
2022/06/06 07:32:32;;;;;;;1.10;0.80;;;19.70;99.90;;;;;;5054694;28;20178;-79
2022/06/06 07:35:29;;;;;;;1.67;0.90;;;19.70;99.90;;;;;;5053792;28;20260;-79
2022/06/06 07:38:16;;;;;;;1.92;1.00;;;19.70;99.90;;;;;;5053492;28;20244;-83
2022/06/06 07:40:53;;;;;;;2.65;0.90;;;19.70;99.90;;;;;;5034571;28;20173;-83
2022/06/06 07:43:39;;;;;;;2.30;1.20;;;19.80;99.90;;;;;;5046190;28;20207;-86
2022/06/06 07:46:24;;;;;;;1.30;0.82;;;19.80;99.90;;;;;;5054735;28;20169;-82
2022/06/06 07:48:52;;;;;;;1.63;0.85;;;19.80;99.90;;;;;;5052889;28;20228;-77
2022/06/06 07:51:45;;;;;;;1.08;0.80;;;19.90;99.90;;;;;;5056159;28;20170;-87
2022/06/06 07:54:13;;;;;;;2.08;1.00;;;20.00;99.90;;;;;;5055774;28;20268;-81
2022/06/06 07:56:55;;;;;;;2.55;1.00;;;20.00;99.90;;;;;;5057638;28;20189;-88
2022/06/06 07:59:39;;;;;;;1.33;0.68;;;20.10;99.90;;;;;;5054163;28;20208;-83
2022/06/06 08:02:22;;;;;;;0.88;0.65;;;20.10;99.90;;;;;;5054218;28;20220;-87
2022/06/06 08:05:16;;;;;;;1.85;0.70;;;20.30;99.90;;;;;;5054677;28;20243;-80
2022/06/06 08:08:25;;;;;;;0.82;0.60;;;20.40;99.90;;;;;;5050347;28;20181;-85
2022/06/06 08:10:53;;;;;;;0.90;0.70;;;20.50;99.90;;;;;;5057859;28;20264;-79
2022/06/06 08:14:14;;;;;;;1.65;0.90;;;20.50;99.90;;;;;;5092747;28;20182;-85
2022/06/06 08:17:04;;;;;;;0.85;0.60;;;20.70;99.90;;;;;;5066470;28;20209;-85
2022/06/06 08:20:00;;;;;;;1.10;0.70;;;20.90;99.90;;;;;;5057080;28;20221;-84
2022/06/06 08:22:26;;;;;;;0.50;0.50;;;21.00;99.90;;;;;;5056858;28;20270;-81
2022/06/06 08:24:57;;;;;;;0.88;0.50;;;21.20;99.90;;;;;;5057248;28;20177;-85
2022/06/06 08:27:27;;;;;;;0.88;0.68;;;21.30;99.90;;;;;;5057277;28;20174;-85
2022/06/06 08:29:53;;;;;;;0.70;0.50;;;21.40;99.90;;;;;;5058047;28;20189;-84
2022/06/06 08:32:19;;;;;;;1.33;1.17;;;21.50;99.90;;;;;;5058238;28;20192;-84
2022/06/06 08:34:45;;;;;;;1.17;0.93;;;21.50;99.90;;;;;;5058220;28;20286;-84
2022/06/06 08:37:20;;;;;;;2.25;0.75;;;21.50;99.90;;;;;;5059386;28;20173;-76
2022/06/06 08:39:57;;;;;;;1.85;0.70;;;21.50;99.90;;;;;;5091243;28;20432;-82
2022/06/06 08:42:28;;;;;;;0.63;0.60;;;21.60;99.90;;;;;;5057550;28;20177;-83
2022/06/06 08:45:28;;;;;;;0.95;0.70;;;21.50;99.90;;;;;;5055731;28;20191;-89
2022/06/06 08:47:54;;;;;;;0.93;0.65;;;21.50;99.90;;;;;;5073005;28;20217;-88
2022/06/06 08:50:50;;;;;;;1.90;0.60;;;21.60;99.90;;;;;;5090299;28;20181;-86
2022/06/06 08:53:36;;;;;;;0.90;0.70;;;21.60;99.90;;;;;;5054636;28;20192;-84
2022/06/06 08:56:50;;;;;;;0.90;0.65;;;21.70;99.90;;;;;;5054087;28;20173;-89
2022/06/06 08:59:42;;;;;;;2.58;0.68;;;21.80;99.90;;;;;;5047807;28;20236;-86
2022/06/06 09:02:24;;;;;;;0.80;0.60;;;21.80;99.90;;;;;;5045495;28;20216;-68
2022/06/06 09:05:20;;;;;;;1.33;0.60;;;21.90;99.90;;;;;;5078786;28;20243;-72
2022/06/06 09:07:55;;;;;;;0.60;0.60;;;21.90;99.90;;;;;;5058033;28;20198;-85
2022/06/06 09:10:54;;;;;;;0.68;0.57;;;22.00;99.90;;;;;;5056696;28;20173;-89
2022/06/06 09:13:41;;;;;;;0.82;0.68;;;22.00;99.90;;;;;;5056629;28;20205;-82
2022/06/06 09:16:16;;;;;;;1.45;0.80;;;21.90;99.90;;;;;;5056302;28;20177;-82
2022/06/06 09:19:10;;;;;;;1.15;0.60;;;21.90;99.90;;;;;;5045046;28;20213;-82
2022/06/06 09:21:45;;;;;;;0.85;0.50;;;21.80;99.90;;;;;;5056640;28;20249;-84
2022/06/06 09:24:13;;;;;;;1.25;0.70;;;21.80;99.90;;;;;;5057140;28;20180;-84
2022/06/06 09:26:41;;;;;;;1.02;0.70;;;21.60;99.90;;;;;;5056492;28;20243;-84
2022/06/06 09:29:41;;;;;;;0.90;0.70;;;21.50;99.90;;;;;;5055846;28;20288;-83
2022/06/06 09:32:13;;;;;;;0.98;0.70;;;21.30;99.90;;;;;;5044486;28;20196;-82
2022/06/06 09:35:19;;;;;;;0.82;0.65;;;20.90;99.90;;;;;;5054855;28;20178;-78
2022/06/06 09:37:48;;;;;;;0.80;0.60;;;20.60;99.90;;;;;;5055912;28;20246;-84
2022/06/06 09:40:37;;;;;;;1.67;0.80;;;20.30;99.90;;;;;;5056562;28;20177;-82
2022/06/06 09:43:14;;;;;;;1.00;0.60;;;20.10;99.90;;;;;;5066323;28;20564;-84
2022/06/06 09:46:15;;;;;;;0.80;0.70;;;19.90;99.90;;;;;;5052553;28;20295;-84
2022/06/06 09:49:11;;;;;;;1.70;0.50;;;19.90;99.90;;;;;;5056708;28;20173;-85
2022/06/06 09:52:01;;;;;;;1.30;0.60;;;20.00;99.90;;;;;;5036544;28;20184;-88
2022/06/06 10:00:41;;;;;;;0.90;0.60;;;20.40;99.90;;;;;;5056836;28;20216;-82
2022/06/06 10:04:05;;;;;;;1.05;0.57;;;20.60;99.90;;;;;;5048990;28;20194;-85
2022/06/06 10:06:51;;;;;;;1.38;0.60;;;20.80;99.90;;;;;;5051421;28;20346;-86
2022/06/06 10:09:44;;;;;;;0.90;0.65;;;21.00;99.90;;;;;;5052415;28;20189;-83
2022/06/06 10:12:12;;;;;;;1.08;0.80;;;21.10;99.90;;;;;;5035721;28;20222;-77
2022/06/06 10:14:50;;;;;;;0.90;0.70;;;21.20;99.90;;;;;;5047273;28;20189;-83
2022/06/06 10:17:45;;;;;;;0.80;0.63;;;21.30;99.90;;;;;;5055536;28;20187;-88
2022/06/06 10:20:25;;;;;;;0.55;0.50;;;21.30;99.90;;;;;;5042301;28;20200;-83
2022/06/06 10:23:08;;;;;;;0.82;0.60;;;21.30;99.90;;;;;;5036085;28;20176;-82
2022/06/06 10:26:10;;;;;;;1.20;0.80;;;21.30;99.90;;;;;;5040857;28;20259;-84
2022/06/06 10:29:03;;;;;;;1.45;0.95;;;21.30;99.90;;;;;;5055538;28;20183;-87
2022/06/06 10:32:00;;;;;;;1.08;0.70;;;21.30;99.90;;;;;;5055760;28;20216;-88
2022/06/06 10:34:25;;;;;;;1.67;1.00;;;21.20;99.90;;;;;;5055697;28;20196;-89
2022/06/06 10:37:10;;;;;;;3.90;0.85;;;21.20;99.90;;;;;;5054994;28;20264;-90
2022/06/06 10:39:41;;;;;;;1.73;0.80;;;21.10;99.90;;;;;;5052356;28;20294;-87
2022/06/06 10:42:14;;;;;;;2.13;0.80;;;21.10;99.90;;;;;;5050389;28;20173;-85
2022/06/06 10:44:52;;;;;;;1.80;0.98;;;21.00;99.90;;;;;;5055261;28;20201;-86
2022/06/06 10:47:55;;;;;;;1.17;0.88;;;21.00;99.90;;;;;;5089064;28;20201;-83
2022/06/06 10:53:48;;;;;;;1.42;0.90;;;20.70;99.90;;;;;;5039487;28;20203;-81
2022/06/06 10:56:35;;;;;;;1.55;1.27;;;20.40;99.90;;;;;;5054700;28;20188;-80
2022/06/06 10:59:22;;;;;;;1.55;0.70;;;20.10;99.90;;;;;;5042511;28;20213;-79
2022/06/06 11:02:16;;;;;;;1.45;0.88;;;19.70;99.90;;;;;;5080267;28;20173;-74
2022/06/06 11:04:47;;;;;;;1.25;0.80;;;19.30;99.90;;;;;;5055100;28;20220;-76
2022/06/06 11:07:22;;;;;;;1.90;0.70;;;19.00;99.90;;;;;;5054883;28;20173;-73
2022/06/06 11:10:06;;;;;;;1.83;0.80;;;18.70;99.90;;;;;;5050961;28;20204;-75
2022/06/06 11:12:50;;;;;;;0.70;0.50;;;18.40;99.90;;;;;;5053336;28;20185;-76
2022/06/06 11:15:18;;;;;;;1.13;0.70;;;18.10;99.90;;;;;;5054996;28;20181;-77
2022/06/06 11:18:18;;;;;;;1.00;0.70;;;18.00;99.90;;;;;;5054468;28;20247;-75
2022/06/06 11:21:04;;;;;;;1.50;0.90;;;17.80;99.90;;;;;;5034901;28;20285;-75
2022/06/06 11:23:48;;;;;;;1.67;0.75;;;17.80;99.90;;;;;;5050107;28;20176;-75
2022/06/06 11:26:28;;;;;;;1.23;0.80;;;18.00;99.90;;;;;;5054144;28;20168;-76
2022/06/06 11:29:22;;;;;;;1.63;0.60;;;18.10;99.90;;;;;;5054986;28;20209;-72
2022/06/06 11:32:17;;;;;;;0.98;0.60;;;18.30;99.90;;;;;;5050526;28;20199;-73
2022/06/06 11:35:04;;;;;;;0.52;0.52;;;18.50;99.90;;;;;;5054302;28;20173;-75
2022/06/06 11:37:57;;;;;;;0.73;0.50;;;18.80;99.90;;;;;;5054134;28;20196;-73
2022/06/06 11:40:49;;;;;;;0.68;0.57;;;19.20;99.90;;;;;;5055853;28;20252;-75
2022/06/06 11:43:55;;;;;;;0.80;0.55;;;19.60;99.90;;;;;;5080190;28;20527;-75
2022/06/06 11:47:04;;;;;;;0.85;0.50;;;20.00;99.90;;;;;;5058016;28;20252;-75
2022/06/06 11:49:51;;;;;;;0.60;0.43;;;20.40;99.90;;;;;;5058081;28;20217;-76
2022/06/06 11:52:37;;;;;;;0.60;0.60;;;20.70;99.90;;;;;;5058921;28;20173;-76
2022/06/06 11:55:30;;;;;;;0.60;0.52;;;21.00;99.90;;;;;;5059395;28;20168;-76
2022/06/06 11:58:01;;;;;;;1.88;0.70;;;21.20;99.90;;;;;;5057976;28;20208;-75
2022/06/06 12:00:49;;;;;;;0.60;0.50;;;21.30;99.90;;;;;;5055051;28;20444;-75
2022/06/06 12:03:35;;;;;;;0.68;0.40;;;21.40;99.90;;;;;;5054983;28;20260;-75
2022/06/06 12:06:13;;;;;;;0.52;0.50;;;21.60;99.90;;;;;;5058045;28;20153;-75
2022/06/06 12:08:48;;;;;;;0.70;0.70;;;21.70;99.90;;;;;;5057988;28;20184;-75
2022/06/06 12:11:52;;;;;;;0.60;0.60;;;21.90;99.90;;;;;;5056791;28;20330;-75
2022/06/06 12:14:39;;;;;;;0.85;0.60;;;22.00;99.90;;;;;;5036855;28;20177;-75
2022/06/06 12:17:10;;;;;;;0.70;0.52;;;22.30;99.90;;;;;;5089190;28;20197;-77
2022/06/06 12:19:39;;;;;;;0.70;0.63;;;22.50;99.90;;;;;;5056331;28;20292;-75
2022/06/06 12:22:39;;;;;;;0.80;0.63;;;22.70;99.90;;;;;;5057933;28;20165;-77
2022/06/06 12:25:25;;;;;;;1.20;0.70;;;23.00;99.90;;;;;;5057350;28;20177;-76
2022/06/06 12:27:58;;;;;;;1.05;0.73;;;23.10;99.90;;;;;;5056250;28;20295;-76
2022/06/06 12:30:52;;;;;;;1.25;0.80;;;23.20;99.90;;;;;;5057387;28;20284;-76
2022/06/06 12:33:33;;;;;;;1.02;0.80;;;23.30;99.90;;;;;;5052842;28;20189;-77
2022/06/06 12:36:02;;;;;;;1.10;0.77;;;23.40;99.90;;;;;;5053119;28;20209;-82
2022/06/06 12:38:47;;;;;;;1.00;0.68;;;23.50;99.90;;;;;;5041035;28;20216;-77
2022/06/06 12:41:34;;;;;;;1.13;0.88;;;23.60;99.90;;;;;;5057562;28;20230;-80
2022/06/06 12:44:05;;;;;;;0.70;0.60;;;23.70;99.90;;;;;;5056716;28;20208;-81
2022/06/06 12:46:48;;;;;;;2.80;0.80;;;23.70;99.90;;;;;;5041357;28;20185;-81
2022/06/06 12:49:20;;;;;;;0.90;0.70;;;23.80;99.90;;;;;;5058024;28;20173;-79
2022/06/06 12:52:03;;;;;;;0.90;0.70;;;23.90;99.90;;;;;;5056878;28;20195;-80
2022/06/06 12:58:04;;;;;;;0.80;0.68;;;24.30;99.90;;;;;;5057574;28;20205;-80
2022/06/06 13:04:00;;;;;;;0.88;0.80;;;24.50;99.90;;;;;;5057858;28;20204;-79
2022/06/06 13:06:26;;;;;;;1.83;1.20;;;24.70;99.90;;;;;;5056742;28;20176;-79
2022/06/06 13:09:12;;;;;;;1.27;0.90;;;24.90;99.90;;;;;;5056194;28;20177;-82
2022/06/06 13:12:03;;;;;;;2.03;0.70;;;25.10;99.90;;;;;;5056436;28;20424;-80
2022/06/06 13:14:55;;;;;;;0.90;0.80;;;25.40;99.90;;;;;;5056595;28;20189;-83
2022/06/06 13:17:37;;;;;;;1.02;0.80;;;25.60;99.90;;;;;;5055406;28;20209;-79
2022/06/06 13:20:16;;;;;;;0.70;0.60;;;25.70;99.90;;;;;;5037156;28;20192;-80
2022/06/06 13:23:18;;;;;;;0.90;0.73;;;25.80;99.90;;;;;;5044384;28;20161;-81
2022/06/06 13:25:55;;;;;;;2.25;0.80;;;25.80;99.90;;;;;;5055698;28;20252;-81
2022/06/06 13:28:27;;;;;;;1.38;0.90;;;25.80;99.90;;;;;;5056126;28;20411;-82
2022/06/06 13:30:57;;;;;;;0.57;0.50;;;25.80;99.90;;;;;;5056362;28;20212;-80
2022/06/06 13:33:40;;;;;;;1.25;0.90;;;25.70;99.90;;;;;;5080178;28;20193;-79
2022/06/06 13:36:37;;;;;;;3.70;0.90;;;25.60;99.90;;;;;;5056630;28;20416;-81
2022/06/06 13:39:25;;;;;;;0.90;0.80;;;25.50;99.00;;;;;;5056017;28;20193;-82
2022/06/06 13:42:05;;;;;;;0.95;0.80;;;25.50;99.00;;;;;;5056525;28;20169;-81
2022/06/06 13:44:46;;;;;;;1.00;0.90;;;25.40;97.70;;;;;;5055934;28;20177;-81
2022/06/06 13:47:42;;;;;;;0.98;0.60;;;25.30;96.00;;;;;;5056246;28;20173;-81
2022/06/06 13:50:31;;;;;;;0.60;0.60;;;25.20;95.30;;;;;;5055960;28;20193;-82
2022/06/06 13:53:24;;;;;;;0.98;0.70;;;25.20;95.30;;;;;;5056443;28;20184;-80
2022/06/06 13:56:24;;;;;;;0.70;0.60;;;25.10;97.40;;;;;;5056321;28;20169;-81
2022/06/06 13:59:05;;;;;;;1.70;0.77;;;25.20;96.30;;;;;;5052870;28;20202;-83
2022/06/06 14:01:39;;;;;;;1.10;0.70;;;25.10;98.30;;;;;;5041520;28;20240;-81
2022/06/06 14:04:33;;;;;;;1.13;0.80;;;25.20;98.00;;;;;;5075439;28;20399;-80
2022/06/06 14:07:19;;;;;;;0.70;0.57;;;25.40;97.00;;;;;;5056161;28;20189;-83
2022/06/06 14:09:49;;;;;;;1.77;0.70;;;25.40;97.60;;;;;;5055873;28;20212;-80
2022/06/06 14:12:26;;;;;;;1.83;1.00;;;25.40;96.50;;;;;;5087747;28;20203;-83
2022/06/06 14:15:13;;;;;;;2.00;0.85;;;25.30;95.40;;;;;;5055289;28;20194;-82
2022/06/06 14:17:46;;;;;;;0.90;0.77;;;25.30;94.40;;;;;;5037591;28;20336;-82
2022/06/06 14:20:32;;;;;;;1.98;0.80;;;25.30;95.30;;;;;;5071554;28;20230;-79
2022/06/06 14:23:27;;;;;;;3.15;1.70;;;25.30;93.60;;;;;;5055606;28;20204;-80
2022/06/06 14:26:01;;;;;;;1.45;0.93;;;25.30;92.50;;;;;;5054415;28;20203;-84
2022/06/06 14:28:42;;;;;;;1.95;0.95;;;25.30;91.80;;;;;;5053189;28;20212;-79